LIBR/BDS METAR and TAF weather

Enter ICAO airport designator
Station Type Date Time Source
LIBR METAR 2020/09/18 06:50 UTC NOAA

LIBR 180650Z AUTO 33016KT 9999 FEW097/// 25/22 Q1011


Station Type Date Time Source
LIBR Decoded METAR 2020/09/18 06:50 UTC NOAA

Brindisi, Italy (LIBR) 40-39N 017-57E 10M
Sep 18, 2020 - 02:50 AM EDT / 2020.09.18 0650 UTC
Wind: from the NNW (330 degrees) at 18 MPH (16 KT):0
Visibility: greater than 7 mile(s):0
Sky conditions: mostly clear
Temperature: 77 F (25 C)
Dew Point: 71 F (22 C)
Relative Humidity: 83%
Pressure (altimeter): 29.85 in. Hg (1011 hPa)
ob: LIBR 180650Z AUTO 33016KT 9999 FEW097/// 25/22 Q1011
cycle: 7

Station Type Date Time Source
LIBR TAF 2020/09/18 06:21 UTC NOAA

TAF LIBR 180500Z 1806/1906 36015KT 9999 SCT015

Example: see airport list